createdAt,value
2019-05-10T00:02:21.000Z,2.6
2019-05-10T00:05:45.000Z,2.4
2019-05-10T00:09:07.000Z,2.6
2019-05-10T00:12:36.000Z,2.3
2019-05-10T00:16:02.000Z,3.2
2019-05-10T00:19:28.000Z,3.3
2019-05-10T00:22:54.000Z,2.9
2019-05-10T00:26:19.000Z,3.3
2019-05-10T00:29:44.000Z,3
2019-05-10T00:33:10.000Z,2.8
2019-05-10T00:36:35.000Z,3.1
2019-05-10T00:40:08.000Z,3.3
2019-05-10T00:43:38.000Z,3.1
2019-05-10T00:47:03.000Z,3
2019-05-10T00:50:29.000Z,2.5
2019-05-10T00:53:57.000Z,2.8
2019-05-10T00:57:31.000Z,3
2019-05-10T01:01:02.000Z,3
2019-05-10T01:04:34.000Z,3
2019-05-10T01:08:00.000Z,3.3
2019-05-10T01:11:29.000Z,3.2
2019-05-10T01:15:01.000Z,3.7
2019-05-10T01:18:29.000Z,3.7
2019-05-10T01:22:03.000Z,3.3
2019-05-10T01:25:34.000Z,3.1
2019-05-10T01:29:05.000Z,3.4
2019-05-10T01:32:35.000Z,3.4
2019-05-10T01:36:11.000Z,3.8
2019-05-10T01:39:48.000Z,3.6
2019-05-10T01:43:19.000Z,3.5
2019-05-10T01:46:53.000Z,3.4
2019-05-10T01:50:20.000Z,3.1
2019-05-10T01:53:53.000Z,3.2
2019-05-10T01:57:20.000Z,2.9
2019-05-10T02:00:53.000Z,3.1
2019-05-10T02:04:27.000Z,3.3
2019-05-10T02:07:57.000Z,3.5
2019-05-10T02:11:29.000Z,3
2019-05-10T02:15:01.000Z,3.3
2019-05-10T02:18:37.000Z,3.5
2019-05-10T02:22:02.000Z,3.3
2019-05-10T02:25:36.000Z,3.3
2019-05-10T02:29:13.000Z,3.5
2019-05-10T02:32:52.000Z,3.2
2019-05-10T02:36:32.000Z,3
2019-05-10T02:40:06.000Z,3.1
2019-05-10T02:43:43.000Z,3.2
2019-05-10T02:47:20.000Z,3.4
2019-05-10T02:51:00.000Z,3.8
2019-05-10T02:54:39.000Z,3.9
2019-05-10T02:58:36.000Z,3.6
2019-05-10T03:02:15.000Z,4.1
2019-05-10T03:06:02.000Z,4.4
2019-05-10T03:09:49.000Z,4.1
2019-05-10T03:13:31.000Z,4.1
2019-05-10T03:17:14.000Z,4.2
2019-05-10T03:20:55.000Z,3.8
2019-05-10T03:24:43.000Z,3.5
2019-05-10T03:28:28.000Z,3.5
2019-05-10T03:32:06.000Z,3.7
2019-05-10T03:35:57.000Z,4.2
2019-05-10T03:39:40.000Z,4
2019-05-10T03:48:31.000Z,3.7
2019-05-10T03:51:54.000Z,4.1
2019-05-10T03:55:17.000Z,3.5
2019-05-10T03:58:40.000Z,3.1
2019-05-10T04:02:03.000Z,3.5
2019-05-10T04:05:28.000Z,4.9
2019-05-10T04:08:52.000Z,10.8
2019-05-10T04:12:15.000Z,3.6
2019-05-10T04:15:39.000Z,3.8
2019-05-10T04:19:04.000Z,3.7
2019-05-10T04:22:27.000Z,3.7
2019-05-10T04:25:52.000Z,3.8
2019-05-10T04:29:27.000Z,4.1
2019-05-10T04:32:54.000Z,3.6
2019-05-10T04:36:21.000Z,4.4
2019-05-10T04:39:47.000Z,4.8
2019-05-10T04:43:13.000Z,4.1
2019-05-10T04:46:40.000Z,4.2
2019-05-10T04:50:06.000Z,4.6
2019-05-10T04:53:31.000Z,4.3
2019-05-10T04:56:58.000Z,4.4
2019-05-10T05:00:24.000Z,4.7
2019-05-10T05:03:49.000Z,4.5
2019-05-10T05:07:15.000Z,4.7
2019-05-10T05:10:39.000Z,4.8
2019-05-10T05:14:03.000Z,4.4
2019-05-10T05:17:29.000Z,4.3
2019-05-10T05:20:56.000Z,4.6
2019-05-10T05:24:23.000Z,4.1
2019-05-10T05:27:47.000Z,4.8
2019-05-10T05:31:25.000Z,4.6
2019-05-10T05:34:50.000Z,4.5
2019-05-10T05:38:18.000Z,4.3
2019-05-10T05:41:46.000Z,4.3
2019-05-10T05:45:18.000Z,4.5
2019-05-10T05:48:59.000Z,4.3
2019-05-10T05:52:28.000Z,4.3
2019-05-10T05:55:57.000Z,4.6
2019-05-10T05:59:35.000Z,3.8
2019-05-10T06:03:03.000Z,4.2
2019-05-10T06:06:41.000Z,4.1
2019-05-10T06:10:20.000Z,4.6
2019-05-10T06:13:52.000Z,4.7
2019-05-10T06:17:36.000Z,4.6
2019-05-10T06:21:05.000Z,4.6
2019-05-10T06:25:02.000Z,4.3
2019-05-10T06:28:35.000Z,4.4
2019-05-10T06:32:23.000Z,4.6
2019-05-10T06:35:52.000Z,4.4
2019-05-10T06:39:19.000Z,4.8
2019-05-10T06:42:49.000Z,4.2
2019-05-10T06:46:30.000Z,4.3
2019-05-10T06:50:09.000Z,4.5
2019-05-10T06:53:41.000Z,4.5
2019-05-10T06:57:17.000Z,4.4
2019-05-10T07:00:50.000Z,4.3
2019-05-10T07:04:32.000Z,4.1
2019-05-10T07:08:08.000Z,5.3
2019-05-10T07:12:06.000Z,4.2
2019-05-10T07:15:42.000Z,4.7
2019-05-10T07:19:19.000Z,4.4
2019-05-10T07:22:49.000Z,4
2019-05-10T07:26:32.000Z,4.9
2019-05-10T07:30:17.000Z,4.8
2019-05-10T07:33:53.000Z,4.1
2019-05-10T07:37:43.000Z,4.4
2019-05-10T07:41:18.000Z,5.1
2019-05-10T07:45:00.000Z,4.4
2019-05-10T07:48:52.000Z,4.9
2019-05-10T07:52:28.000Z,4.9
2019-05-10T07:56:20.000Z,4.2
2019-05-10T08:00:07.000Z,4.5
2019-05-10T08:03:49.000Z,4.3
2019-05-10T08:07:36.000Z,4.5
2019-05-10T08:11:21.000Z,5.2
2019-05-10T08:15:07.000Z,4.7
2019-05-10T08:18:45.000Z,4.9
2019-05-10T08:22:53.000Z,4.6
2019-05-10T08:26:40.000Z,4.5
2019-05-10T08:30:15.000Z,4.4
2019-05-10T08:33:58.000Z,3.9
2019-05-10T08:37:44.000Z,4
2019-05-10T08:46:35.000Z,3.7
2019-05-10T08:50:06.000Z,3.9
2019-05-10T08:54:00.000Z,3.9
2019-05-10T08:57:25.000Z,3.6
2019-05-10T09:01:08.000Z,3.9
2019-05-10T09:04:46.000Z,3.6
2019-05-10T09:08:11.000Z,3.4
2019-05-10T09:11:45.000Z,3.4
2019-05-10T09:15:26.000Z,3.1
2019-05-10T09:18:57.000Z,2.9
2019-05-10T09:22:23.000Z,3
2019-05-10T09:26:00.000Z,2.8
2019-05-10T09:29:31.000Z,3.2
2019-05-10T09:33:16.000Z,2.7
2019-05-10T09:36:41.000Z,3
2019-05-10T09:40:06.000Z,2.8
2019-05-10T09:43:32.000Z,3
2019-05-10T09:47:08.000Z,2.9
2019-05-10T09:50:31.000Z,3.1
2019-05-10T09:54:07.000Z,2.8
2019-05-10T09:57:31.000Z,3.4
2019-05-10T10:00:58.000Z,2.9
2019-05-10T10:04:36.000Z,3.1
2019-05-10T10:08:04.000Z,3.1
2019-05-10T10:11:38.000Z,2.8
2019-05-10T10:15:34.000Z,2.8
2019-05-10T10:19:02.000Z,2.6
2019-05-10T10:22:35.000Z,2.3
2019-05-10T10:26:14.000Z,2.8
2019-05-10T10:29:39.000Z,2.9
2019-05-10T10:33:25.000Z,2.8
2019-05-10T10:36:55.000Z,2.4
2019-05-10T10:40:29.000Z,2.3
2019-05-10T10:44:06.000Z,2.2
2019-05-10T10:47:37.000Z,2
2019-05-10T10:51:09.000Z,1.8
2019-05-10T10:54:39.000Z,2
2019-05-10T10:58:07.000Z,1.8
2019-05-10T11:01:36.000Z,2
2019-05-10T11:05:25.000Z,1.8
2019-05-10T11:09:10.000Z,2
2019-05-10T11:12:41.000Z,2
2019-05-10T11:16:12.000Z,2.1
2019-05-10T11:19:40.000Z,2.5
2019-05-10T11:23:07.000Z,2.8
2019-05-10T11:26:40.000Z,2.2
2019-05-10T11:30:15.000Z,2.3
2019-05-10T11:34:15.000Z,2.2
2019-05-10T11:37:44.000Z,2.3
2019-05-10T11:41:23.000Z,2.1
2019-05-10T11:44:59.000Z,2.1
2019-05-10T11:48:31.000Z,2.6
2019-05-10T11:52:27.000Z,2.3
2019-05-10T11:56:02.000Z,2.2
2019-05-10T11:59:48.000Z,1.8
2019-05-10T12:03:21.000Z,2.2
2019-05-10T12:07:10.000Z,2.3
2019-05-10T12:11:03.000Z,2.2
2019-05-10T12:15:16.000Z,2.4
2019-05-10T12:18:57.000Z,1.9
2019-05-10T12:24:52.000Z,2.7
2019-05-10T12:29:28.000Z,2.1
2019-05-10T12:33:11.000Z,2
2019-05-10T12:37:03.000Z,2.3
2019-05-10T12:40:40.000Z,2
2019-05-10T12:44:22.000Z,1.7
2019-05-10T12:48:01.000Z,1.9
2019-05-10T12:59:03.000Z,4.7
2019-05-10T13:02:26.000Z,3.7
2019-05-10T13:05:50.000Z,2.6
2019-05-10T13:09:18.000Z,2
2019-05-10T13:12:57.000Z,4.2
2019-05-10T13:16:22.000Z,2.7
2019-05-10T13:19:47.000Z,2.5
2019-05-10T13:23:17.000Z,2.4
2019-05-10T13:26:42.000Z,1.9
2019-05-10T13:30:08.000Z,1.9
2019-05-10T13:33:38.000Z,2.3
2019-05-10T13:37:01.000Z,2.4
2019-05-10T13:40:43.000Z,2.2
2019-05-10T13:44:08.000Z,2.3
2019-05-10T13:47:33.000Z,2.5
2019-05-10T13:50:56.000Z,2.3
2019-05-10T13:54:32.000Z,2.5
2019-05-10T13:57:55.000Z,2.2
2019-05-10T14:01:21.000Z,2.1
2019-05-10T14:04:46.000Z,2.2
2019-05-10T14:08:10.000Z,2.4
2019-05-10T14:11:35.000Z,2.1
2019-05-10T14:15:05.000Z,1.7
2019-05-10T14:18:31.000Z,1.8
2019-05-10T14:21:54.000Z,1.8
2019-05-10T14:25:27.000Z,1.8
2019-05-10T14:28:55.000Z,1.7
2019-05-10T14:32:18.000Z,1.8
2019-05-10T14:36:13.000Z,1.7
2019-05-10T14:39:42.000Z,1.7
2019-05-10T14:43:09.000Z,1.7
2019-05-10T14:46:33.000Z,1.7
2019-05-10T14:50:01.000Z,1.3
2019-05-10T14:53:52.000Z,2.5
2019-05-10T14:57:32.000Z,1.9
2019-05-10T15:01:03.000Z,1.6
2019-05-10T15:04:33.000Z,2
2019-05-10T15:08:13.000Z,2.2
2019-05-10T15:11:41.000Z,2.1
2019-05-10T15:15:05.000Z,1.7
2019-05-10T15:18:32.000Z,2.2
2019-05-10T15:22:01.000Z,2.4
2019-05-10T15:25:27.000Z,2.1
2019-05-10T15:28:55.000Z,2.4
2019-05-10T15:32:27.000Z,2.7
2019-05-10T15:36:01.000Z,2.7
2019-05-10T15:39:40.000Z,2.3
2019-05-10T15:43:20.000Z,2.2
2019-05-10T15:46:51.000Z,2.5
2019-05-10T15:50:28.000Z,2
2019-05-10T15:56:07.000Z,2.2
2019-05-10T15:59:46.000Z,2.1
2019-05-10T16:03:39.000Z,2.2
2019-05-10T16:07:32.000Z,1.9
2019-05-10T16:21:53.000Z,2.3
2019-05-10T16:25:16.000Z,2.6
2019-05-10T16:28:39.000Z,2.7
2019-05-10T16:32:10.000Z,2.3
2019-05-10T16:35:33.000Z,2.1
2019-05-10T16:39:04.000Z,2.5
2019-05-10T16:42:27.000Z,2
2019-05-10T16:45:54.000Z,2.7
2019-05-10T16:49:17.000Z,2.7
2019-05-10T16:52:40.000Z,2.3
2019-05-10T16:56:07.000Z,2.2
2019-05-10T16:59:36.000Z,2.1
2019-05-10T17:03:01.000Z,2.4
2019-05-10T17:06:34.000Z,2.3
2019-05-10T17:09:58.000Z,2.1
2019-05-10T17:13:23.000Z,1.9
2019-05-10T17:16:53.000Z,2.3
2019-05-10T17:20:18.000Z,2.2
2019-05-10T17:23:42.000Z,1.8
2019-05-10T17:27:06.000Z,1.9
2019-05-10T17:30:31.000Z,1.8
2019-05-10T17:33:59.000Z,1.7
2019-05-10T17:37:22.000Z,1.7
2019-05-10T17:40:54.000Z,1.8
2019-05-10T17:44:18.000Z,1.5
2019-05-10T17:47:42.000Z,1.6
2019-05-10T17:53:19.000Z,1.9
2019-05-10T17:56:51.000Z,2.3
2019-05-10T18:00:28.000Z,2.1
2019-05-10T18:03:53.000Z,2.5
2019-05-10T18:07:19.000Z,2.2
2019-05-10T18:10:46.000Z,2.3
2019-05-10T18:14:24.000Z,2.4
2019-05-10T18:17:56.000Z,2.3
2019-05-10T18:21:20.000Z,2.4
2019-05-10T18:24:51.000Z,2.3
2019-05-10T18:28:20.000Z,2.3
2019-05-10T18:31:48.000Z,2.4
2019-05-10T18:37:42.000Z,2.8
2019-05-10T18:41:19.000Z,2.2
2019-05-10T18:45:04.000Z,2.5
2019-05-10T18:48:33.000Z,2.6
2019-05-10T18:52:02.000Z,2.9
2019-05-10T18:55:41.000Z,3
2019-05-10T18:59:20.000Z,2.9
2019-05-10T19:02:59.000Z,2.9
2019-05-10T19:06:28.000Z,2.5
2019-05-10T19:10:01.000Z,2.8
2019-05-10T19:13:38.000Z,2.8
2019-05-10T19:17:17.000Z,2.5
2019-05-10T19:20:59.000Z,2.8
2019-05-10T19:24:31.000Z,2.7
2019-05-10T19:28:03.000Z,2.8
2019-05-10T19:31:47.000Z,2.4
2019-05-10T19:35:34.000Z,2.7
2019-05-10T19:39:28.000Z,2.9
2019-05-10T19:43:00.000Z,2.9
2019-05-10T19:46:43.000Z,3.1
2019-05-10T19:53:56.000Z,3.3
2019-05-10T19:57:31.000Z,3.1
2019-05-10T20:01:17.000Z,2.8
2019-05-10T20:04:56.000Z,3
2019-05-10T20:08:35.000Z,3
2019-05-10T20:12:14.000Z,3.5
2019-05-10T20:15:49.000Z,3.3
2019-05-10T20:19:24.000Z,3.1
2019-05-10T20:23:00.000Z,3.1
2019-05-10T20:26:38.000Z,3.1
2019-05-10T20:30:19.000Z,3
2019-05-10T20:34:01.000Z,3.4
2019-05-10T20:40:03.000Z,3.4
2019-05-10T20:43:41.000Z,3.2
2019-05-10T20:47:26.000Z,3.5
2019-05-10T20:51:15.000Z,3.5
2019-05-10T20:54:56.000Z,3.5
2019-05-10T20:58:45.000Z,3.3
2019-05-10T21:07:43.000Z,3.1
2019-05-10T21:11:07.000Z,4
2019-05-10T21:14:30.000Z,3.9
2019-05-10T21:17:54.000Z,3.6
2019-05-10T21:21:18.000Z,2.9
2019-05-10T21:24:42.000Z,3.6
2019-05-10T21:28:05.000Z,3.6
2019-05-10T21:31:28.000Z,3.3
2019-05-10T21:34:51.000Z,3.5
2019-05-10T21:38:14.000Z,3.9
2019-05-10T21:41:49.000Z,3.5
2019-05-10T21:45:12.000Z,5.4
2019-05-10T21:48:37.000Z,5.7
2019-05-10T21:52:00.000Z,5.9
2019-05-10T21:55:24.000Z,4.5
2019-05-10T21:58:48.000Z,4.7
2019-05-10T22:02:12.000Z,4.1
2019-05-10T22:05:37.000Z,3.9
2019-05-10T22:09:01.000Z,3.6
2019-05-10T22:12:25.000Z,3.6
2019-05-10T22:15:49.000Z,3.4
2019-05-10T22:19:12.000Z,3.3
2019-05-10T22:22:37.000Z,3.5
2019-05-10T22:26:02.000Z,3.6
2019-05-10T22:29:28.000Z,3.7
2019-05-10T22:32:54.000Z,3.8
2019-05-10T22:36:19.000Z,3.8
2019-05-10T22:39:45.000Z,3.8
2019-05-10T22:43:11.000Z,4.5
2019-05-10T22:50:34.000Z,3.7
2019-05-10T22:53:57.000Z,3.6
2019-05-10T22:57:20.000Z,3.8
2019-05-10T23:00:43.000Z,4
2019-05-10T23:04:06.000Z,3.7
2019-05-10T23:07:29.000Z,4
2019-05-10T23:10:52.000Z,4.2
2019-05-10T23:14:16.000Z,3.9
2019-05-10T23:17:40.000Z,4
2019-05-10T23:21:04.000Z,3.7
2019-05-10T23:24:28.000Z,4.2
2019-05-10T23:27:51.000Z,4.4
2019-05-10T23:31:14.000Z,3.9
2019-05-10T23:34:37.000Z,4.2
2019-05-10T23:38:03.000Z,4.3
2019-05-10T23:41:35.000Z,4.5
2019-05-10T23:44:59.000Z,5
2019-05-10T23:48:26.000Z,6.6
2019-05-10T23:51:50.000Z,6.5
2019-05-10T23:55:16.000Z,5.1
2019-05-10T23:58:40.000Z,9.3
